sensor_id;sensor_type;location;lat;lon;timestamp;pressure;altitude;pressure_sealevel;temperature;humidity
11053;BME280;55230;42.602;23.470;2023-06-10T00:02:07;93162.19;;;15.96;100.00
11053;BME280;55230;42.602;23.470;2023-06-10T00:04:34;93166.50;;;15.66;100.00
11053;BME280;55230;42.602;23.470;2023-06-10T00:07:02;93163.81;;;15.72;100.00
11053;BME280;55230;42.602;23.470;2023-06-10T00:09:30;93159.88;;;15.73;100.00
11053;BME280;55230;42.602;23.470;2023-06-10T00:11:57;93157.66;;;15.77;100.00
11053;BME280;55230;42.602;23.470;2023-06-10T00:14:25;93159.16;;;15.83;100.00
11053;BME280;55230;42.602;23.470;2023-06-10T00:16:52;93162.56;;;15.73;100.00
11053;BME280;55230;42.602;23.470;2023-06-10T00:19:18;93155.63;;;15.66;100.00
11053;BME280;55230;42.602;23.470;2023-06-10T00:21:50;93158.13;;;15.70;100.00
11053;BME280;55230;42.602;23.470;2023-06-10T00:24:18;93162.56;;;15.73;100.00
11053;BME280;55230;42.602;23.470;2023-06-10T00:26:46;93169.75;;;15.76;100.00
11053;BME280;55230;42.602;23.470;2023-06-10T00:29:12;93162.84;;;15.75;100.00
11053;BME280;55230;42.602;23.470;2023-06-10T00:31:39;93167.56;;;15.80;100.00
11053;BME280;55230;42.602;23.470;2023-06-10T00:34:06;93168.81;;;15.79;100.00
11053;BME280;55230;42.602;23.470;2023-06-10T00:36:33;93171.25;;;15.77;100.00
11053;BME280;55230;42.602;23.470;2023-06-10T00:39:00;93173.94;;;15.71;100.00
11053;BME280;55230;42.602;23.470;2023-06-10T00:41:27;93174.94;;;15.68;100.00
11053;BME280;55230;42.602;23.470;2023-06-10T00:43:56;93181.59;;;15.73;100.00
11053;BME280;55230;42.602;23.470;2023-06-10T00:46:22;93184.38;;;15.78;100.00
11053;BME280;55230;42.602;23.470;2023-06-10T00:48:50;93184.56;;;15.69;100.00
11053;BME280;55230;42.602;23.470;2023-06-10T00:51:17;93176.16;;;15.73;100.00
11053;BME280;55230;42.602;23.470;2023-06-10T00:53:44;93175.19;;;15.76;100.00
11053;BME280;55230;42.602;23.470;2023-06-10T00:56:11;93167.81;;;15.82;100.00
11053;BME280;55230;42.602;23.470;2023-06-10T00:58:37;93175.00;;;15.85;100.00
11053;BME280;55230;42.602;23.470;2023-06-10T01:01:05;93171.53;;;15.84;100.00
11053;BME280;55230;42.602;23.470;2023-06-10T01:03:32;93171.75;;;15.81;100.00
11053;BME280;55230;42.602;23.470;2023-06-10T01:06:05;93175.25;;;15.87;100.00
11053;BME280;55230;42.602;23.470;2023-06-10T01:08:33;93174.00;;;15.88;100.00
11053;BME280;55230;42.602;23.470;2023-06-10T01:11:03;93171.44;;;15.68;100.00
11053;BME280;55230;42.602;23.470;2023-06-10T01:13:31;93178.84;;;15.67;100.00
11053;BME280;55230;42.602;23.470;2023-06-10T01:15:58;93173.41;;;15.67;100.00
11053;BME280;55230;42.602;23.470;2023-06-10T01:18:30;93169.72;;;15.65;100.00
11053;BME280;55230;42.602;23.470;2023-06-10T01:20:57;93166.50;;;15.66;100.00
11053;BME280;55230;42.602;23.470;2023-06-10T01:23:25;93167.00;;;15.70;100.00
11053;BME280;55230;42.602;23.470;2023-06-10T01:25:53;93168.03;;;15.73;100.00
11053;BME280;55230;42.602;23.470;2023-06-10T01:28:21;93170.03;;;15.83;100.00
11053;BME280;55230;42.602;23.470;2023-06-10T01:31:03;93174.69;;;15.72;100.00
11053;BME280;55230;42.602;23.470;2023-06-10T01:33:35;93184.28;;;15.67;100.00
11053;BME280;55230;42.602;23.470;2023-06-10T01:36:02;93178.13;;;15.67;100.00
11053;BME280;55230;42.602;23.470;2023-06-10T01:38:32;93182.59;;;15.70;100.00
11053;BME280;55230;42.602;23.470;2023-06-10T01:40:59;93191.50;;;15.76;100.00
11053;BME280;55230;42.602;23.470;2023-06-10T01:43:26;93182.13;;;15.77;100.00
11053;BME280;55230;42.602;23.470;2023-06-10T01:45:53;93176.72;;;15.82;100.00
11053;BME280;55230;42.602;23.470;2023-06-10T01:48:19;93164.91;;;15.91;100.00
11053;BME280;55230;42.602;23.470;2023-06-10T01:50:46;93179.25;;;15.97;100.00
11053;BME280;55230;42.602;23.470;2023-06-10T01:53:12;93179.47;;;15.93;100.00
11053;BME280;55230;42.602;23.470;2023-06-10T01:55:40;93178.50;;;15.96;100.00
11053;BME280;55230;42.602;23.470;2023-06-10T01:58:07;93180.00;;;15.97;100.00
11053;BME280;55230;42.602;23.470;2023-06-10T02:00:33;93171.88;;;16.03;100.00
11053;BME280;55230;42.602;23.470;2023-06-10T02:03:00;93174.06;;;15.99;100.00
11053;BME280;55230;42.602;23.470;2023-06-10T02:05:26;93168.09;;;15.89;100.00
11053;BME280;55230;42.602;23.470;2023-06-10T02:07:53;93164.16;;;15.90;100.00
11053;BME280;55230;42.602;23.470;2023-06-10T02:10:20;93164.91;;;15.96;100.00
11053;BME280;55230;42.602;23.470;2023-06-10T02:12:48;93175.81;;;16.02;100.00
11053;BME280;55230;42.602;23.470;2023-06-10T02:15:14;93169.38;;;16.05;100.00
11053;BME280;55230;42.602;23.470;2023-06-10T02:17:41;93167.44;;;16.11;100.00
11053;BME280;55230;42.602;23.470;2023-06-10T02:20:07;93161.00;;;16.14;100.00
11053;BME280;55230;42.602;23.470;2023-06-10T02:22:36;93164.25;;;16.18;100.00
11053;BME280;55230;42.602;23.470;2023-06-10T02:25:03;93149.66;;;16.21;100.00
11053;BME280;55230;42.602;23.470;2023-06-10T02:27:29;93148.38;;;16.05;100.00
11053;BME280;55230;42.602;23.470;2023-06-10T02:29:57;93148.59;;;15.96;100.00
11053;BME280;55230;42.602;23.470;2023-06-10T02:32:24;93139.22;;;16.03;100.00
11053;BME280;55230;42.602;23.470;2023-06-10T02:34:51;93149.59;;;15.99;100.00
11053;BME280;55230;42.602;23.470;2023-06-10T02:37:18;93149.84;;;16.01;100.00
11053;BME280;55230;42.602;23.470;2023-06-10T02:39:45;93145.41;;;16.03;100.00
11053;BME280;55230;42.602;23.470;2023-06-10T02:42:12;93145.66;;;16.05;100.00
11053;BME280;55230;42.602;23.470;2023-06-10T02:44:38;93133.03;;;16.02;100.00
11053;BME280;55230;42.602;23.470;2023-06-10T02:47:06;93137.72;;;16.02;100.00
11053;BME280;55230;42.602;23.470;2023-06-10T02:49:33;93136.28;;;16.06;100.00
11053;BME280;55230;42.602;23.470;2023-06-10T02:51:59;93136.28;;;16.12;100.00
11053;BME280;55230;42.602;23.470;2023-06-10T02:54:26;93134.56;;;16.14;100.00
11053;BME280;55230;42.602;23.470;2023-06-10T02:56:52;93134.31;;;16.18;100.00
11053;BME280;55230;42.602;23.470;2023-06-10T02:59:20;93134.59;;;16.20;100.00
11053;BME280;55230;42.602;23.470;2023-06-10T03:01:47;93127.63;;;16.13;100.00
11053;BME280;55230;42.602;23.470;2023-06-10T03:04:15;93129.41;;;16.22;100.00
11053;BME280;55230;42.602;23.470;2023-06-10T03:06:41;93134.09;;;16.27;100.00
11053;BME280;55230;42.602;23.470;2023-06-10T03:09:10;93131.88;;;16.31;100.00
11053;BME280;55230;42.602;23.470;2023-06-10T03:11:37;93132.13;;;16.33;100.00
11053;BME280;55230;42.602;23.470;2023-06-10T03:14:03;93136.84;;;16.38;100.00
11053;BME280;55230;42.602;23.470;2023-06-10T03:16:30;93142.53;;;16.40;100.00
11053;BME280;55230;42.602;23.470;2023-06-10T03:18:57;93132.66;;;16.43;100.00
11053;BME280;55230;42.602;23.470;2023-06-10T03:21:24;93141.34;;;16.47;100.00
11053;BME280;55230;42.602;23.470;2023-06-10T03:23:52;93145.25;;;16.40;100.00
11053;BME280;55230;42.602;23.470;2023-06-10T03:26:18;93143.81;;;16.50;100.00
11053;BME280;55230;42.602;23.470;2023-06-10T03:28:46;93140.31;;;16.44;100.00
11053;BME280;55230;42.602;23.470;2023-06-10T03:31:13;93148.50;;;16.44;100.00
11053;BME280;55230;42.602;23.470;2023-06-10T03:33:41;93148.00;;;16.46;100.00
11053;BME280;55230;42.602;23.470;2023-06-10T03:36:08;93149.75;;;16.54;100.00
11053;BME280;55230;42.602;23.470;2023-06-10T03:38:36;93151.00;;;16.48;100.00
11053;BME280;55230;42.602;23.470;2023-06-10T03:41:03;93153.22;;;16.49;100.00
11053;BME280;55230;42.602;23.470;2023-06-10T03:43:29;93159.09;;;16.31;100.00
11053;BME280;55230;42.602;23.470;2023-06-10T03:45:56;93148.66;;;16.24;100.00
11053;BME280;55230;42.602;23.470;2023-06-10T03:48:22;93156.34;;;16.20;100.00
11053;BME280;55230;42.602;23.470;2023-06-10T03:50:49;93166.91;;;16.07;100.00
11053;BME280;55230;42.602;23.470;2023-06-10T03:53:16;93158.66;;;15.79;100.00
11053;BME280;55230;42.602;23.470;2023-06-10T03:55:44;93159.56;;;15.60;100.00
11053;BME280;55230;42.602;23.470;2023-06-10T03:58:11;93169.66;;;15.54;100.00
11053;BME280;55230;42.602;23.470;2023-06-10T04:00:38;93171.16;;;15.60;100.00
11053;BME280;55230;42.602;23.470;2023-06-10T04:03:07;93169.19;;;15.61;100.00
11053;BME280;55230;42.602;23.470;2023-06-10T04:05:39;93176.16;;;15.36;100.00
11053;BME280;55230;42.602;23.470;2023-06-10T04:08:05;93171.50;;;15.37;100.00
11053;BME280;55230;42.602;23.470;2023-06-10T04:10:32;93163.22;;;15.57;100.00
11053;BME280;55230;42.602;23.470;2023-06-10T04:13:00;93171.41;;;15.62;100.00
11053;BME280;55230;42.602;23.470;2023-06-10T04:15:26;93176.25;;;15.42;100.00
11053;BME280;55230;42.602;23.470;2023-06-10T04:17:53;93179.44;;;15.40;100.00
11053;BME280;55230;42.602;23.470;2023-06-10T04:20:20;93169.38;;;15.52;100.00
11053;BME280;55230;42.602;23.470;2023-06-10T04:22:47;93162.81;;;15.69;100.00
11053;BME280;55230;42.602;23.470;2023-06-10T04:25:13;93169.28;;;15.83;100.00
11053;BME280;55230;42.602;23.470;2023-06-10T04:27:41;93162.94;;;15.97;100.00
11053;BME280;55230;42.602;23.470;2023-06-10T04:30:09;93163.13;;;15.82;100.00
11053;BME280;55230;42.602;23.470;2023-06-10T04:32:36;93171.66;;;15.59;100.00
11053;BME280;55230;42.602;23.470;2023-06-10T04:35:03;93171.09;;;15.49;100.00
11053;BME280;55230;42.602;23.470;2023-06-10T04:37:29;93178.72;;;15.45;100.00
11053;BME280;55230;42.602;23.470;2023-06-10T04:39:56;93176.53;;;15.49;100.00
11053;BME280;55230;42.602;23.470;2023-06-10T04:42:22;93183.41;;;15.45;100.00
11053;BME280;55230;42.602;23.470;2023-06-10T04:44:49;93173.38;;;15.56;100.00
11053;BME280;55230;42.602;23.470;2023-06-10T04:47:17;93171.75;;;15.81;100.00
11053;BME280;55230;42.602;23.470;2023-06-10T04:49:43;93181.25;;;16.02;100.00
11053;BME280;55230;42.602;23.470;2023-06-10T04:52:10;93174.41;;;16.23;100.00
11053;BME280;55230;42.602;23.470;2023-06-10T04:54:37;93170.72;;;16.37;100.00
11053;BME280;55230;42.602;23.470;2023-06-10T04:57:04;93172.03;;;16.47;100.00
11053;BME280;55230;42.602;23.470;2023-06-10T04:59:32;93175.25;;;16.62;100.00
11053;BME280;55230;42.602;23.470;2023-06-10T05:02:02;93170.84;;;16.70;100.00
11053;BME280;55230;42.602;23.470;2023-06-10T05:04:30;93171.06;;;16.78;100.00
11053;BME280;55230;42.602;23.470;2023-06-10T05:06:57;93169.84;;;16.90;100.00
11053;BME280;55230;42.602;23.470;2023-06-10T05:09:23;93171.09;;;17.05;100.00
11053;BME280;55230;42.602;23.470;2023-06-10T05:11:51;93171.09;;;17.05;100.00
11053;BME280;55230;42.602;23.470;2023-06-10T05:14:18;93169.13;;;17.17;100.00
11053;BME280;55230;42.602;23.470;2023-06-10T05:16:46;93171.81;;;17.39;100.00
11053;BME280;55230;42.602;23.470;2023-06-10T05:19:12;93169.84;;;17.56;100.00
11053;BME280;55230;42.602;23.470;2023-06-10T05:21:40;93163.38;;;17.70;100.00
11053;BME280;55230;42.602;23.470;2023-06-10T05:24:07;93165.28;;;17.92;100.00
11053;BME280;55230;42.602;23.470;2023-06-10T05:26:33;93162.94;;;18.18;100.00
11053;BME280;55230;42.602;23.470;2023-06-10T05:29:02;93165.00;;;17.95;100.00
11053;BME280;55230;42.602;23.470;2023-06-10T05:31:29;93164.84;;;17.66;100.00
11053;BME280;55230;42.602;23.470;2023-06-10T05:33:55;93168.84;;;17.37;100.00
11053;BME280;55230;42.602;23.470;2023-06-10T05:36:22;93166.13;;;17.31;100.00
11053;BME280;55230;42.602;23.470;2023-06-10T05:38:51;93172.31;;;17.32;100.00
11053;BME280;55230;42.602;23.470;2023-06-10T05:41:18;93176.28;;;17.31;100.00
11053;BME280;55230;42.602;23.470;2023-06-10T05:43:45;93172.56;;;17.51;100.00
11053;BME280;55230;42.602;23.470;2023-06-10T05:46:12;93178.91;;;17.92;100.00
11053;BME280;55230;42.602;23.470;2023-06-10T05:48:38;93176.28;;;18.32;100.00
11053;BME280;55230;42.602;23.470;2023-06-10T05:51:05;93179.97;;;18.35;100.00
11053;BME280;55230;42.602;23.470;2023-06-10T05:53:32;93186.19;;;18.41;100.00
11053;BME280;55230;42.602;23.470;2023-06-10T05:55:59;93188.97;;;18.76;100.00
11053;BME280;55230;42.602;23.470;2023-06-10T05:58:26;93186.91;;;18.47;100.00
11053;BME280;55230;42.602;23.470;2023-06-10T06:00:52;93191.66;;;18.41;100.00
11053;BME280;55230;42.602;23.470;2023-06-10T06:03:19;93188.75;;;18.17;100.00
11053;BME280;55230;42.602;23.470;2023-06-10T06:05:46;93185.81;;;17.98;100.00
11053;BME280;55230;42.602;23.470;2023-06-10T06:08:12;93193.31;;;17.81;100.00
11053;BME280;55230;42.602;23.470;2023-06-10T06:10:42;93190.88;;;17.67;100.00
11053;BME280;55230;42.602;23.470;2023-06-10T06:13:10;93191.16;;;17.63;100.00
11053;BME280;55230;42.602;23.470;2023-06-10T06:15:37;93193.63;;;17.50;100.00
11053;BME280;55230;42.602;23.470;2023-06-10T06:18:03;93190.41;;;17.52;100.00
11053;BME280;55230;42.602;23.470;2023-06-10T06:20:30;93190.13;;;17.66;100.00
11053;BME280;55230;42.602;23.470;2023-06-10T06:22:56;93192.81;;;17.83;100.00
11053;BME280;55230;42.602;23.470;2023-06-10T06:25:23;93194.31;;;17.89;100.00
11053;BME280;55230;42.602;23.470;2023-06-10T06:27:49;93192.06;;;17.88;100.00
11053;BME280;55230;42.602;23.470;2023-06-10T06:30:17;93200.78;;;17.70;100.00
11053;BME280;55230;42.602;23.470;2023-06-10T06:32:43;93187.34;;;17.99;100.00
11053;BME280;55230;42.602;23.470;2023-06-10T06:35:10;93188.59;;;17.87;100.00
11053;BME280;55230;42.602;23.470;2023-06-10T06:37:36;93186.81;;;18.01;100.00
11053;BME280;55230;42.602;23.470;2023-06-10T06:40:03;93182.66;;;17.83;100.00
11053;BME280;55230;42.602;23.470;2023-06-10T06:42:30;93187.88;;;17.76;100.00
11053;BME280;55230;42.602;23.470;2023-06-10T06:44:56;93181.16;;;17.88;100.00
11053;BME280;55230;42.602;23.470;2023-06-10T06:47:24;93186.72;;;18.23;100.00
11053;BME280;55230;42.602;23.470;2023-06-10T06:49:51;93179.75;;;18.33;100.00
11053;BME280;55230;42.602;23.470;2023-06-10T06:52:18;93183.19;;;18.39;100.00
11053;BME280;55230;42.602;23.470;2023-06-10T06:54:45;93184.28;;;18.14;100.00
11053;BME280;55230;42.602;23.470;2023-06-10T06:57:11;93183.97;;;18.34;100.00
11053;BME280;55230;42.602;23.470;2023-06-10T06:59:38;93180.00;;;18.29;100.00
11053;BME280;55230;42.602;23.470;2023-06-10T07:02:04;93177.00;;;18.33;100.00
11053;BME280;55230;42.602;23.470;2023-06-10T07:04:33;93180.22;;;18.37;100.00
11053;BME280;55230;42.602;23.470;2023-06-10T07:07:00;93178.47;;;18.45;100.00
11053;BME280;55230;42.602;23.470;2023-06-10T07:09:26;93173.38;;;18.14;100.00
11053;BME280;55230;42.602;23.470;2023-06-10T07:11:53;93174.81;;;18.26;100.00
11053;BME280;55230;42.602;23.470;2023-06-10T07:14:19;93178.81;;;18.14;100.00
11053;BME280;55230;42.602;23.470;2023-06-10T07:16:46;93175.59;;;18.15;100.00
11053;BME280;55230;42.602;23.470;2023-06-10T07:19:13;93180.47;;;18.39;100.00
11053;BME280;55230;42.602;23.470;2023-06-10T07:21:41;93183.09;;;18.61;100.00
11053;BME280;55230;42.602;23.470;2023-06-10T07:24:08;93185.06;;;18.66;100.00
11053;BME280;55230;42.602;23.470;2023-06-10T07:26:34;93186.13;;;18.52;100.00
11053;BME280;55230;42.602;23.470;2023-06-10T07:29:01;93184.41;;;18.49;100.00
11053;BME280;55230;42.602;23.470;2023-06-10T07:31:27;93186.47;;;18.78;100.00
11053;BME280;55230;42.602;23.470;2023-06-10T07:33:54;93183.06;;;18.72;100.00
11053;BME280;55230;42.602;23.470;2023-06-10T07:36:20;93177.59;;;18.72;100.00
11053;BME280;55230;42.602;23.470;2023-06-10T07:38:48;93180.69;;;18.93;100.00
11053;BME280;55230;42.602;23.470;2023-06-10T07:41:14;93185.31;;;19.03;100.00
11053;BME280;55230;42.602;23.470;2023-06-10T07:43:43;93183.06;;;19.02;100.00
11053;BME280;55230;42.602;23.470;2023-06-10T07:46:09;93182.59;;;19.63;100.00
11053;BME280;55230;42.602;23.470;2023-06-10T07:48:35;93187.97;;;19.98;100.00
11053;BME280;55230;42.602;23.470;2023-06-10T07:51:02;93182.75;;;20.98;100.00
11053;BME280;55230;42.602;23.470;2023-06-10T07:53:29;93189.28;;;21.58;100.00
11053;BME280;55230;42.602;23.470;2023-06-10T07:55:56;93181.84;;;20.90;100.00
11053;BME280;55230;42.602;23.470;2023-06-10T07:58:23;93188.44;;;20.82;100.00
11053;BME280;55230;42.602;23.470;2023-06-10T08:00:49;93194.00;;;20.39;100.00
11053;BME280;55230;42.602;23.470;2023-06-10T08:03:16;93195.25;;;20.56;100.00
11053;BME280;55230;42.602;23.470;2023-06-10T08:05:42;93197.13;;;21.04;100.00
11053;BME280;55230;42.602;23.470;2023-06-10T08:08:09;93199.13;;;21.35;100.00
11053;BME280;55230;42.602;23.470;2023-06-10T08:10:35;93194.63;;;21.51;100.00
11053;BME280;55230;42.602;23.470;2023-06-10T08:13:04;93193.34;;;21.84;98.63
11053;BME280;55230;42.602;23.470;2023-06-10T08:15:30;93195.13;;;21.36;100.00
11053;BME280;55230;42.602;23.470;2023-06-10T08:17:57;93202.56;;;21.23;93.98
11053;BME280;55230;42.602;23.470;2023-06-10T08:20:23;93206.44;;;21.14;94.21
11053;BME280;55230;42.602;23.470;2023-06-10T08:22:50;93191.19;;;21.00;97.07
11053;BME280;55230;42.602;23.470;2023-06-10T08:25:16;93199.56;;;21.39;86.82
11053;BME280;55230;42.602;23.470;2023-06-10T08:27:43;93188.94;;;22.07;89.09
11053;BME280;55230;42.602;23.470;2023-06-10T08:30:11;93181.78;;;21.59;94.27
11053;BME280;55230;42.602;23.470;2023-06-10T08:32:38;93180.38;;;22.23;90.22
11053;BME280;55230;42.602;23.470;2023-06-10T08:35:05;93180.13;;;23.07;95.93
11053;BME280;55230;42.602;23.470;2023-06-10T08:37:33;93178.03;;;22.40;88.48
11053;BME280;55230;42.602;23.470;2023-06-10T08:39:59;93176.47;;;22.32;89.77
11053;BME280;55230;42.602;23.470;2023-06-10T08:42:27;93181.31;;;22.39;85.52
11053;BME280;55230;42.602;23.470;2023-06-10T08:44:54;93178.78;;;22.15;81.69
11053;BME280;55230;42.602;23.470;2023-06-10T08:47:23;93173.06;;;22.52;79.51
11053;BME280;55230;42.602;23.470;2023-06-10T08:49:50;93175.63;;;21.85;78.78
11053;BME280;55230;42.602;23.470;2023-06-10T08:52:17;93176.38;;;21.98;78.20
11053;BME280;55230;42.602;23.470;2023-06-10T08:54:46;93170.34;;;22.13;75.11
11053;BME280;55230;42.602;23.470;2023-06-10T08:57:14;93167.91;;;22.35;79.43
11053;BME280;55230;42.602;23.470;2023-06-10T08:59:41;93164.00;;;22.57;76.79
11053;BME280;55230;42.602;23.470;2023-06-10T09:02:08;93165.03;;;22.41;80.26
11053;BME280;55230;42.602;23.470;2023-06-10T09:04:36;93163.25;;;22.56;68.71
11053;BME280;55230;42.602;23.470;2023-06-10T09:07:03;93160.53;;;22.17;59.41
11053;BME280;55230;42.602;23.470;2023-06-10T09:09:30;93147.03;;;22.79;65.97
11053;BME280;55230;42.602;23.470;2023-06-10T09:11:57;93146.53;;;22.67;64.26
11053;BME280;55230;42.602;23.470;2023-06-10T09:14:25;93143.91;;;22.62;62.49
11053;BME280;55230;42.602;23.470;2023-06-10T09:16:52;93140.19;;;22.59;61.51
11053;BME280;55230;42.602;23.470;2023-06-10T09:19:22;93145.94;;;23.16;64.00
11053;BME280;55230;42.602;23.470;2023-06-10T09:21:50;93144.31;;;23.00;56.23
11053;BME280;55230;42.602;23.470;2023-06-10T09:24:17;93143.72;;;23.14;58.43
11053;BME280;55230;42.602;23.470;2023-06-10T09:26:44;93143.91;;;22.62;54.22
11053;BME280;55230;42.602;23.470;2023-06-10T09:29:11;93133.50;;;22.68;55.73
11053;BME280;55230;42.602;23.470;2023-06-10T09:31:37;93141.22;;;23.24;53.43
11053;BME280;55230;42.602;23.470;2023-06-10T09:34:05;93135.28;;;23.53;51.17
11053;BME280;55230;42.602;23.470;2023-06-10T09:36:32;93135.28;;;23.53;51.31
11053;BME280;55230;42.602;23.470;2023-06-10T09:39:00;93140.19;;;24.24;54.35
11053;BME280;55230;42.602;23.470;2023-06-10T09:41:31;93138.63;;;24.94;52.28
11053;BME280;55230;42.602;23.470;2023-06-10T09:43:58;93128.38;;;25.25;50.92
11053;BME280;55230;42.602;23.470;2023-06-10T09:46:25;93127.13;;;25.79;50.57
11053;BME280;55230;42.602;23.470;2023-06-10T09:48:56;93123.28;;;25.37;48.75
11053;BME280;55230;42.602;23.470;2023-06-10T09:51:23;93123.00;;;24.46;51.29
11053;BME280;55230;42.602;23.470;2023-06-10T09:53:50;93117.88;;;25.01;53.96
11053;BME280;55230;42.602;23.470;2023-06-10T09:56:18;93118.84;;;24.68;50.64
11053;BME280;55230;42.602;23.470;2023-06-10T09:58:45;93117.41;;;23.67;52.94
11053;BME280;55230;42.602;23.470;2023-06-10T10:01:12;93118.69;;;23.94;55.89
11053;BME280;55230;42.602;23.470;2023-06-10T10:03:45;93110.56;;;24.68;53.72
11053;BME280;55230;42.602;23.470;2023-06-10T10:06:12;93111.09;;;25.17;53.04
11053;BME280;55230;42.602;23.470;2023-06-10T10:08:39;93111.69;;;25.53;52.55
11053;BME280;55230;42.602;23.470;2023-06-10T10:11:05;93115.16;;;25.16;50.51
11053;BME280;55230;42.602;23.470;2023-06-10T10:13:33;93101.69;;;24.47;56.65
11053;BME280;55230;42.602;23.470;2023-06-10T10:16:01;93098.16;;;24.89;51.95
11053;BME280;55230;42.602;23.470;2023-06-10T10:18:29;93094.75;;;24.61;49.59
11053;BME280;55230;42.602;23.470;2023-06-10T10:20:56;93092.09;;;24.91;48.91
11053;BME280;55230;42.602;23.470;2023-06-10T10:23:24;93105.28;;;24.27;51.49
11053;BME280;55230;42.602;23.470;2023-06-10T10:25:51;93087.44;;;23.92;52.53
11053;BME280;55230;42.602;23.470;2023-06-10T10:28:18;93098.09;;;24.24;52.30
11053;BME280;55230;42.602;23.470;2023-06-10T10:30:48;93098.72;;;23.73;53.28
11053;BME280;55230;42.602;23.470;2023-06-10T10:33:16;93087.41;;;23.84;53.29
11053;BME280;55230;42.602;23.470;2023-06-10T10:35:45;93090.94;;;24.21;51.62
11053;BME280;55230;42.602;23.470;2023-06-10T10:38:12;93091.47;;;24.62;52.44
11053;BME280;55230;42.602;23.470;2023-06-10T10:40:38;93084.84;;;24.65;49.85
11053;BME280;55230;42.602;23.470;2023-06-10T10:43:05;93080.38;;;25.36;50.49
11053;BME280;55230;42.602;23.470;2023-06-10T10:45:33;93082.38;;;25.95;49.70
11053;BME280;55230;42.602;23.470;2023-06-10T10:48:04;93082.22;;;25.10;49.84
11053;BME280;55230;42.602;23.470;2023-06-10T10:50:31;93074.94;;;24.70;49.38
11053;BME280;55230;42.602;23.470;2023-06-10T10:53:00;93074.72;;;24.60;49.60
11053;BME280;55230;42.602;23.470;2023-06-10T10:55:27;93075.75;;;25.08;50.70
11053;BME280;55230;42.602;23.470;2023-06-10T10:57:54;93068.78;;;25.67;49.53
11053;BME280;55230;42.602;23.470;2023-06-10T11:00:24;93075.31;;;26.25;48.33
11053;BME280;55230;42.602;23.470;2023-06-10T11:02:51;93071.84;;;26.01;50.04
11053;BME280;55230;42.602;23.470;2023-06-10T11:05:30;93061.25;;;26.77;47.55
11053;BME280;55230;42.602;23.470;2023-06-10T11:07:57;93060.28;;;25.80;47.43
11053;BME280;55230;42.602;23.470;2023-06-10T11:10:28;93053.69;;;25.46;48.72
11053;BME280;55230;42.602;23.470;2023-06-10T11:12:56;93058.38;;;24.62;48.32
11053;BME280;55230;42.602;23.470;2023-06-10T11:15:23;93049.91;;;24.68;49.57
11053;BME280;55230;42.602;23.470;2023-06-10T11:20:46;93046.94;;;24.00;49.25
11053;BME280;55230;42.602;23.470;2023-06-10T11:26:10;93032.31;;;24.71;48.95
11053;BME280;55230;42.602;23.470;2023-06-10T11:28:37;93026.09;;;25.53;49.76
11053;BME280;55230;42.602;23.470;2023-06-10T11:31:03;93026.19;;;25.93;46.26
11053;BME280;55230;42.602;23.470;2023-06-10T11:33:30;93023.16;;;25.36;46.76
11053;BME280;55230;42.602;23.470;2023-06-10T11:35:58;93022.78;;;25.32;49.17
11053;BME280;55230;42.602;23.470;2023-06-10T11:38:25;93023.13;;;25.06;46.90
11053;BME280;55230;42.602;23.470;2023-06-10T11:40:52;93022.00;;;24.71;47.44
11053;BME280;55230;42.602;23.470;2023-06-10T11:43:19;93023.16;;;25.59;50.16
11053;BME280;55230;42.602;23.470;2023-06-10T11:45:45;93019.59;;;25.73;48.06
11053;BME280;55230;42.602;23.470;2023-06-10T11:48:12;93022.41;;;24.98;45.49
11053;BME280;55230;42.602;23.470;2023-06-10T11:50:39;93020.47;;;24.63;46.85
11053;BME280;55230;42.602;23.470;2023-06-10T11:53:09;93017.44;;;24.96;48.50
11053;BME280;55230;42.602;23.470;2023-06-10T11:55:41;93007.34;;;25.14;47.31
11053;BME280;55230;42.602;23.470;2023-06-10T11:58:11;93005.88;;;25.05;50.98
11053;BME280;55230;42.602;23.470;2023-06-10T12:00:43;93001.09;;;25.36;47.38
11053;BME280;55230;42.602;23.470;2023-06-10T12:03:09;93006.22;;;25.55;47.50
11053;BME280;55230;42.602;23.470;2023-06-10T12:05:36;93006.06;;;25.38;46.60
11053;BME280;55230;42.602;23.470;2023-06-10T12:08:10;92999.59;;;24.90;46.94
11053;BME280;55230;42.602;23.470;2023-06-10T12:10:40;93005.84;;;24.98;48.67
11053;BME280;55230;42.602;23.470;2023-06-10T12:13:07;93006.22;;;25.47;46.39
11053;BME280;55230;42.602;23.470;2023-06-10T12:15:34;92998.72;;;26.02;46.37
11053;BME280;55230;42.602;23.470;2023-06-10T12:18:01;92998.09;;;26.59;43.34
11053;BME280;55230;42.602;23.470;2023-06-10T12:20:28;93006.97;;;26.89;43.02
11053;BME280;55230;42.602;23.470;2023-06-10T12:22:55;92997.38;;;26.18;42.46
11053;BME280;55230;42.602;23.470;2023-06-10T12:25:25;92995.50;;;25.66;42.11
11053;BME280;55230;42.602;23.470;2023-06-10T12:27:53;92991.28;;;25.58;43.79
11053;BME280;55230;42.602;23.470;2023-06-10T12:30:20;92987.13;;;26.44;44.47
11053;BME280;55230;42.602;23.470;2023-06-10T12:32:47;92990.75;;;26.86;41.58
11053;BME280;55230;42.602;23.470;2023-06-10T12:35:15;92987.38;;;27.19;40.76
11053;BME280;55230;42.602;23.470;2023-06-10T12:37:43;92989.22;;;26.92;40.30
11053;BME280;55230;42.602;23.470;2023-06-10T12:40:25;92988.94;;;26.01;42.78
11053;BME280;55230;42.602;23.470;2023-06-10T12:42:53;92989.19;;;25.88;44.22
11053;BME280;55230;42.602;23.470;2023-06-10T12:45:25;92986.94;;;26.42;46.52
11053;BME280;55230;42.602;23.470;2023-06-10T12:47:58;92982.28;;;25.27;47.30
11053;BME280;55230;42.602;23.470;2023-06-10T12:50:30;92987.09;;;24.89;48.00